sensor_id;sensor_type;location;lat;lon;timestamp;P1;durP1;ratioP1;P2;durP2;ratioP2
16531;SDS011;66872;63.142;14.482;2023-04-03T00:01:31;2.70;;;1.50;;
16531;SDS011;66872;63.142;14.482;2023-04-03T00:03:57;3.37;;;1.57;;
16531;SDS011;66872;63.142;14.482;2023-04-03T00:06:23;2.30;;;1.30;;
16531;SDS011;66872;63.142;14.482;2023-04-03T00:08:50;2.73;;;1.50;;
16531;SDS011;66872;63.142;14.482;2023-04-03T00:11:16;2.40;;;1.53;;
16531;SDS011;66872;63.142;14.482;2023-04-03T00:13:42;2.87;;;1.77;;
16531;SDS011;66872;63.142;14.482;2023-04-03T00:16:08;1.67;;;1.23;;
16531;SDS011;66872;63.142;14.482;2023-04-03T00:18:35;2.40;;;1.33;;
16531;SDS011;66872;63.142;14.482;2023-04-03T00:21:02;3.63;;;1.63;;
16531;SDS011;66872;63.142;14.482;2023-04-03T00:23:28;2.40;;;1.50;;
16531;SDS011;66872;63.142;14.482;2023-04-03T00:25:53;2.20;;;1.30;;
16531;SDS011;66872;63.142;14.482;2023-04-03T00:28:20;3.63;;;1.87;;
16531;SDS011;66872;63.142;14.482;2023-04-03T00:30:46;3.97;;;1.93;;
16531;SDS011;66872;63.142;14.482;2023-04-03T00:33:13;4.33;;;1.70;;
16531;SDS011;66872;63.142;14.482;2023-04-03T00:35:39;1.80;;;1.30;;
16531;SDS011;66872;63.142;14.482;2023-04-03T00:38:05;3.13;;;1.53;;
16531;SDS011;66872;63.142;14.482;2023-04-03T00:40:35;4.37;;;1.60;;
16531;SDS011;66872;63.142;14.482;2023-04-03T00:43:04;2.13;;;1.33;;
16531;SDS011;66872;63.142;14.482;2023-04-03T00:45:37;4.90;;;1.57;;
16531;SDS011;66872;63.142;14.482;2023-04-03T00:48:06;1.70;;;1.40;;
16531;SDS011;66872;63.142;14.482;2023-04-03T00:50:34;1.93;;;1.30;;
16531;SDS011;66872;63.142;14.482;2023-04-03T00:53:03;3.10;;;1.50;;
16531;SDS011;66872;63.142;14.482;2023-04-03T00:55:30;2.93;;;1.57;;
16531;SDS011;66872;63.142;14.482;2023-04-03T00:57:56;2.03;;;1.40;;
16531;SDS011;66872;63.142;14.482;2023-04-03T01:00:24;2.10;;;1.20;;
16531;SDS011;66872;63.142;14.482;2023-04-03T01:02:50;2.57;;;1.30;;
16531;SDS011;66872;63.142;14.482;2023-04-03T01:05:16;2.30;;;1.40;;
16531;SDS011;66872;63.142;14.482;2023-04-03T01:07:44;2.77;;;1.40;;
16531;SDS011;66872;63.142;14.482;2023-04-03T01:10:11;2.93;;;1.53;;
16531;SDS011;66872;63.142;14.482;2023-04-03T01:12:40;2.17;;;1.30;;
16531;SDS011;66872;63.142;14.482;2023-04-03T01:15:09;1.80;;;1.20;;
16531;SDS011;66872;63.142;14.482;2023-04-03T01:22:56;2.87;;;1.43;;
16531;SDS011;66872;63.142;14.482;2023-04-03T01:25:45;2.27;;;1.40;;
16531;SDS011;66872;63.142;14.482;2023-04-03T01:28:20;2.00;;;1.30;;
16531;SDS011;66872;63.142;14.482;2023-04-03T01:33:37;1.57;;;1.00;;
16531;SDS011;66872;63.142;14.482;2023-04-03T01:36:03;2.33;;;1.50;;
16531;SDS011;66872;63.142;14.482;2023-04-03T01:38:30;2.70;;;1.67;;
16531;SDS011;66872;63.142;14.482;2023-04-03T01:40:56;2.90;;;1.43;;
16531;SDS011;66872;63.142;14.482;2023-04-03T01:43:22;2.70;;;1.30;;
16531;SDS011;66872;63.142;14.482;2023-04-03T01:45:47;2.70;;;1.57;;
16531;SDS011;66872;63.142;14.482;2023-04-03T01:48:19;1.47;;;1.37;;
16531;SDS011;66872;63.142;14.482;2023-04-03T01:50:45;3.00;;;1.40;;
16531;SDS011;66872;63.142;14.482;2023-04-03T01:53:11;1.57;;;1.17;;
16531;SDS011;66872;63.142;14.482;2023-04-03T01:55:37;2.03;;;1.27;;
16531;SDS011;66872;63.142;14.482;2023-04-03T01:58:02;2.30;;;1.23;;
16531;SDS011;66872;63.142;14.482;2023-04-03T02:00:28;2.00;;;1.30;;
16531;SDS011;66872;63.142;14.482;2023-04-03T02:02:54;2.20;;;1.30;;
16531;SDS011;66872;63.142;14.482;2023-04-03T02:05:20;1.60;;;1.10;;
16531;SDS011;66872;63.142;14.482;2023-04-03T02:07:46;1.40;;;1.10;;
16531;SDS011;66872;63.142;14.482;2023-04-03T02:10:12;2.10;;;1.33;;
16531;SDS011;66872;63.142;14.482;2023-04-03T02:12:38;1.77;;;1.10;;
16531;SDS011;66872;63.142;14.482;2023-04-03T02:15:04;1.50;;;1.20;;
16531;SDS011;66872;63.142;14.482;2023-04-03T02:17:30;2.00;;;1.30;;
16531;SDS011;66872;63.142;14.482;2023-04-03T02:19:56;1.53;;;1.20;;
16531;SDS011;66872;63.142;14.482;2023-04-03T02:22:21;3.80;;;1.50;;
16531;SDS011;66872;63.142;14.482;2023-04-03T02:24:47;1.30;;;1.10;;
16531;SDS011;66872;63.142;14.482;2023-04-03T02:27:13;2.73;;;1.47;;
16531;SDS011;66872;63.142;14.482;2023-04-03T02:29:38;1.50;;;1.10;;
16531;SDS011;66872;63.142;14.482;2023-04-03T02:32:04;1.27;;;1.17;;
16531;SDS011;66872;63.142;14.482;2023-04-03T02:34:30;2.03;;;1.30;;
16531;SDS011;66872;63.142;14.482;2023-04-03T02:36:56;3.10;;;1.27;;
16531;SDS011;66872;63.142;14.482;2023-04-03T02:39:21;2.13;;;1.20;;
16531;SDS011;66872;63.142;14.482;2023-04-03T02:41:47;2.10;;;1.17;;
16531;SDS011;66872;63.142;14.482;2023-04-03T02:44:13;1.90;;;1.17;;
16531;SDS011;66872;63.142;14.482;2023-04-03T02:46:38;1.97;;;1.20;;
16531;SDS011;66872;63.142;14.482;2023-04-03T02:49:04;2.43;;;1.20;;
16531;SDS011;66872;63.142;14.482;2023-04-03T02:51:30;1.57;;;1.10;;
16531;SDS011;66872;63.142;14.482;2023-04-03T02:53:56;1.07;;;0.97;;
16531;SDS011;66872;63.142;14.482;2023-04-03T02:56:22;1.53;;;1.10;;
16531;SDS011;66872;63.142;14.482;2023-04-03T02:58:47;1.77;;;1.10;;
16531;SDS011;66872;63.142;14.482;2023-04-03T03:01:13;1.93;;;1.10;;
16531;SDS011;66872;63.142;14.482;2023-04-03T03:03:39;1.77;;;1.10;;
16531;SDS011;66872;63.142;14.482;2023-04-03T03:06:06;1.10;;;1.00;;
16531;SDS011;66872;63.142;14.482;2023-04-03T03:08:34;1.83;;;1.20;;
16531;SDS011;66872;63.142;14.482;2023-04-03T03:11:00;2.17;;;1.40;;
16531;SDS011;66872;63.142;14.482;2023-04-03T03:13:26;1.33;;;1.20;;
16531;SDS011;66872;63.142;14.482;2023-04-03T03:15:52;1.83;;;1.23;;
16531;SDS011;66872;63.142;14.482;2023-04-03T03:18:18;1.33;;;1.13;;
16531;SDS011;66872;63.142;14.482;2023-04-03T03:20:43;1.47;;;1.20;;
16531;SDS011;66872;63.142;14.482;2023-04-03T03:23:09;2.33;;;1.20;;
16531;SDS011;66872;63.142;14.482;2023-04-03T03:25:38;2.57;;;1.20;;
16531;SDS011;66872;63.142;14.482;2023-04-03T03:28:05;1.80;;;1.20;;
16531;SDS011;66872;63.142;14.482;2023-04-03T03:30:31;1.33;;;0.90;;
16531;SDS011;66872;63.142;14.482;2023-04-03T03:32:57;3.27;;;1.43;;
16531;SDS011;66872;63.142;14.482;2023-04-03T03:35:22;1.10;;;1.00;;
16531;SDS011;66872;63.142;14.482;2023-04-03T03:37:48;1.40;;;1.00;;
16531;SDS011;66872;63.142;14.482;2023-04-03T03:40:14;1.30;;;1.00;;
16531;SDS011;66872;63.142;14.482;2023-04-03T03:42:40;2.13;;;1.20;;
16531;SDS011;66872;63.142;14.482;2023-04-03T03:45:06;1.40;;;0.90;;
16531;SDS011;66872;63.142;14.482;2023-04-03T03:47:32;1.70;;;1.10;;
16531;SDS011;66872;63.142;14.482;2023-04-03T03:49:58;2.13;;;1.30;;
16531;SDS011;66872;63.142;14.482;2023-04-03T03:52:24;2.23;;;1.00;;
16531;SDS011;66872;63.142;14.482;2023-04-03T03:54:51;2.57;;;1.30;;
16531;SDS011;66872;63.142;14.482;2023-04-03T03:57:16;1.30;;;1.20;;
16531;SDS011;66872;63.142;14.482;2023-04-03T03:59:42;1.53;;;1.20;;
16531;SDS011;66872;63.142;14.482;2023-04-03T04:02:09;1.60;;;1.20;;
16531;SDS011;66872;63.142;14.482;2023-04-03T04:04:36;1.00;;;0.90;;
16531;SDS011;66872;63.142;14.482;2023-04-03T04:07:02;1.33;;;1.20;;
16531;SDS011;66872;63.142;14.482;2023-04-03T04:09:28;2.07;;;1.30;;
16531;SDS011;66872;63.142;14.482;2023-04-03T04:11:54;1.37;;;1.10;;
16531;SDS011;66872;63.142;14.482;2023-04-03T04:14:20;2.70;;;1.30;;
16531;SDS011;66872;63.142;14.482;2023-04-03T04:16:47;1.80;;;1.20;;
16531;SDS011;66872;63.142;14.482;2023-04-03T04:19:13;1.20;;;1.10;;
16531;SDS011;66872;63.142;14.482;2023-04-03T04:21:39;1.63;;;1.20;;
16531;SDS011;66872;63.142;14.482;2023-04-03T04:24:05;2.30;;;1.33;;
16531;SDS011;66872;63.142;14.482;2023-04-03T04:26:31;1.73;;;1.17;;
16531;SDS011;66872;63.142;14.482;2023-04-03T04:28:56;2.13;;;1.37;;
16531;SDS011;66872;63.142;14.482;2023-04-03T04:31:22;1.60;;;1.10;;
16531;SDS011;66872;63.142;14.482;2023-04-03T04:33:48;1.40;;;1.17;;
16531;SDS011;66872;63.142;14.482;2023-04-03T04:36:13;1.30;;;1.00;;
16531;SDS011;66872;63.142;14.482;2023-04-03T04:38:40;1.67;;;1.07;;
16531;SDS011;66872;63.142;14.482;2023-04-03T04:41:06;2.00;;;1.33;;
16531;SDS011;66872;63.142;14.482;2023-04-03T04:43:32;1.00;;;0.90;;
16531;SDS011;66872;63.142;14.482;2023-04-03T04:46:04;1.03;;;0.93;;
16531;SDS011;66872;63.142;14.482;2023-04-03T04:48:32;1.10;;;1.00;;
16531;SDS011;66872;63.142;14.482;2023-04-03T04:50:58;1.23;;;1.10;;
16531;SDS011;66872;63.142;14.482;2023-04-03T04:53:24;1.67;;;0.97;;
16531;SDS011;66872;63.142;14.482;2023-04-03T04:55:50;1.90;;;1.27;;
16531;SDS011;66872;63.142;14.482;2023-04-03T04:58:16;1.63;;;1.00;;
16531;SDS011;66872;63.142;14.482;2023-04-03T05:00:42;2.17;;;1.30;;
16531;SDS011;66872;63.142;14.482;2023-04-03T05:03:08;1.10;;;1.00;;
16531;SDS011;66872;63.142;14.482;2023-04-03T05:05:34;1.20;;;1.00;;
16531;SDS011;66872;63.142;14.482;2023-04-03T05:08:00;1.60;;;1.20;;
16531;SDS011;66872;63.142;14.482;2023-04-03T05:10:27;1.10;;;1.00;;
16531;SDS011;66872;63.142;14.482;2023-04-03T05:12:52;1.73;;;1.13;;
16531;SDS011;66872;63.142;14.482;2023-04-03T05:15:18;2.10;;;1.10;;
16531;SDS011;66872;63.142;14.482;2023-04-03T05:17:43;1.23;;;1.10;;
16531;SDS011;66872;63.142;14.482;2023-04-03T05:20:09;0.90;;;0.90;;
16531;SDS011;66872;63.142;14.482;2023-04-03T05:22:35;1.10;;;1.00;;
16531;SDS011;66872;63.142;14.482;2023-04-03T05:25:01;1.40;;;1.10;;
16531;SDS011;66872;63.142;14.482;2023-04-03T05:27:27;2.13;;;1.10;;
16531;SDS011;66872;63.142;14.482;2023-04-03T05:29:53;1.43;;;1.10;;
16531;SDS011;66872;63.142;14.482;2023-04-03T05:32:20;1.10;;;1.00;;
16531;SDS011;66872;63.142;14.482;2023-04-03T05:34:47;1.30;;;1.00;;
16531;SDS011;66872;63.142;14.482;2023-04-03T05:37:12;1.20;;;1.10;;
16531;SDS011;66872;63.142;14.482;2023-04-03T05:39:38;2.03;;;1.00;;
16531;SDS011;66872;63.142;14.482;2023-04-03T05:42:05;1.03;;;0.93;;
16531;SDS011;66872;63.142;14.482;2023-04-03T05:44:32;1.33;;;1.20;;
16531;SDS011;66872;63.142;14.482;2023-04-03T05:46:58;1.50;;;1.20;;
16531;SDS011;66872;63.142;14.482;2023-04-03T05:49:24;1.30;;;0.97;;
16531;SDS011;66872;63.142;14.482;2023-04-03T05:51:49;1.27;;;0.97;;
16531;SDS011;66872;63.142;14.482;2023-04-03T05:56:52;1.30;;;1.00;;
16531;SDS011;66872;63.142;14.482;2023-04-03T05:59:18;1.63;;;1.17;;
16531;SDS011;66872;63.142;14.482;2023-04-03T06:01:45;1.50;;;1.20;;
16531;SDS011;66872;63.142;14.482;2023-04-03T06:04:11;1.40;;;1.10;;
16531;SDS011;66872;63.142;14.482;2023-04-03T06:09:20;0.80;;;0.80;;
16531;SDS011;66872;63.142;14.482;2023-04-03T06:11:47;1.63;;;1.10;;
16531;SDS011;66872;63.142;14.482;2023-04-03T06:14:13;1.07;;;1.00;;
16531;SDS011;66872;63.142;14.482;2023-04-03T06:16:39;1.10;;;1.00;;
16531;SDS011;66872;63.142;14.482;2023-04-03T06:19:06;1.70;;;1.10;;
16531;SDS011;66872;63.142;14.482;2023-04-03T06:21:35;1.20;;;1.10;;
16531;SDS011;66872;63.142;14.482;2023-04-03T06:24:02;1.10;;;1.00;;
16531;SDS011;66872;63.142;14.482;2023-04-03T06:26:28;0.83;;;0.83;;
16531;SDS011;66872;63.142;14.482;2023-04-03T06:28:54;1.80;;;1.27;;
16531;SDS011;66872;63.142;14.482;2023-04-03T06:31:20;1.00;;;0.90;;
16531;SDS011;66872;63.142;14.482;2023-04-03T06:33:46;1.13;;;1.03;;
16531;SDS011;66872;63.142;14.482;2023-04-03T06:36:12;1.20;;;1.10;;
16531;SDS011;66872;63.142;14.482;2023-04-03T06:38:38;1.00;;;0.90;;
16531;SDS011;66872;63.142;14.482;2023-04-03T06:41:04;1.70;;;1.10;;
16531;SDS011;66872;63.142;14.482;2023-04-03T06:43:29;1.07;;;0.90;;
16531;SDS011;66872;63.142;14.482;2023-04-03T06:45:58;1.30;;;1.20;;
16531;SDS011;66872;63.142;14.482;2023-04-03T06:48:24;1.60;;;1.03;;
16531;SDS011;66872;63.142;14.482;2023-04-03T06:50:49;0.97;;;0.93;;
16531;SDS011;66872;63.142;14.482;2023-04-03T06:53:15;1.53;;;0.97;;
16531;SDS011;66872;63.142;14.482;2023-04-03T06:55:41;1.40;;;1.10;;
16531;SDS011;66872;63.142;14.482;2023-04-03T06:58:07;1.40;;;1.23;;
16531;SDS011;66872;63.142;14.482;2023-04-03T07:00:33;1.50;;;1.27;;
16531;SDS011;66872;63.142;14.482;2023-04-03T07:02:59;1.20;;;1.10;;
16531;SDS011;66872;63.142;14.482;2023-04-03T07:05:24;1.53;;;1.37;;
16531;SDS011;66872;63.142;14.482;2023-04-03T07:07:51;1.73;;;1.10;;
16531;SDS011;66872;63.142;14.482;2023-04-03T07:10:23;1.73;;;1.23;;
16531;SDS011;66872;63.142;14.482;2023-04-03T07:12:49;1.27;;;1.13;;
16531;SDS011;66872;63.142;14.482;2023-04-03T07:15:14;1.20;;;1.10;;
16531;SDS011;66872;63.142;14.482;2023-04-03T07:17:40;1.30;;;1.20;;
16531;SDS011;66872;63.142;14.482;2023-04-03T07:20:06;1.33;;;1.10;;
16531;SDS011;66872;63.142;14.482;2023-04-03T07:22:33;2.00;;;1.20;;
16531;SDS011;66872;63.142;14.482;2023-04-03T07:24:58;1.87;;;0.93;;
16531;SDS011;66872;63.142;14.482;2023-04-03T07:27:25;1.30;;;1.00;;
16531;SDS011;66872;63.142;14.482;2023-04-03T07:29:51;2.63;;;1.33;;
16531;SDS011;66872;63.142;14.482;2023-04-03T07:32:16;1.30;;;1.07;;
16531;SDS011;66872;63.142;14.482;2023-04-03T07:34:42;1.30;;;1.10;;
16531;SDS011;66872;63.142;14.482;2023-04-03T07:37:09;2.17;;;1.20;;
16531;SDS011;66872;63.142;14.482;2023-04-03T07:39:35;1.73;;;1.00;;
16531;SDS011;66872;63.142;14.482;2023-04-03T07:42:01;1.03;;;0.93;;
16531;SDS011;66872;63.142;14.482;2023-04-03T07:44:27;1.30;;;1.20;;
16531;SDS011;66872;63.142;14.482;2023-04-03T07:46:53;1.00;;;0.90;;
16531;SDS011;66872;63.142;14.482;2023-04-03T07:49:21;2.03;;;1.23;;
16531;SDS011;66872;63.142;14.482;2023-04-03T07:51:49;1.20;;;1.10;;
16531;SDS011;66872;63.142;14.482;2023-04-03T07:54:14;1.20;;;0.97;;
16531;SDS011;66872;63.142;14.482;2023-04-03T07:56:40;1.40;;;1.13;;
16531;SDS011;66872;63.142;14.482;2023-04-03T07:59:08;1.53;;;1.20;;
16531;SDS011;66872;63.142;14.482;2023-04-03T08:01:34;1.20;;;1.10;;
16531;SDS011;66872;63.142;14.482;2023-04-03T08:04:00;1.60;;;1.10;;
16531;SDS011;66872;63.142;14.482;2023-04-03T08:06:26;1.23;;;1.00;;
16531;SDS011;66872;63.142;14.482;2023-04-03T08:08:54;1.27;;;1.10;;
16531;SDS011;66872;63.142;14.482;2023-04-03T08:11:20;1.50;;;1.20;;
16531;SDS011;66872;63.142;14.482;2023-04-03T08:13:46;1.80;;;1.10;;
16531;SDS011;66872;63.142;14.482;2023-04-03T08:16:12;1.10;;;1.00;;
16531;SDS011;66872;63.142;14.482;2023-04-03T08:18:43;1.40;;;1.10;;
16531;SDS011;66872;63.142;14.482;2023-04-03T08:21:09;2.87;;;1.13;;
16531;SDS011;66872;63.142;14.482;2023-04-03T08:23:37;1.37;;;1.13;;
16531;SDS011;66872;63.142;14.482;2023-04-03T08:26:14;1.23;;;0.90;;
16531;SDS011;66872;63.142;14.482;2023-04-03T08:28:41;0.80;;;0.80;;
16531;SDS011;66872;63.142;14.482;2023-04-03T08:31:09;1.23;;;1.10;;
16531;SDS011;66872;63.142;14.482;2023-04-03T08:33:37;2.00;;;1.03;;
16531;SDS011;66872;63.142;14.482;2023-04-03T08:36:04;1.40;;;1.20;;
16531;SDS011;66872;63.142;14.482;2023-04-03T08:38:41;1.10;;;1.00;;
16531;SDS011;66872;63.142;14.482;2023-04-03T08:49:47;1.20;;;1.10;;
16531;SDS011;66872;63.142;14.482;2023-04-03T08:52:21;1.17;;;1.03;;
16531;SDS011;66872;63.142;14.482;2023-04-03T08:54:57;0.90;;;0.90;;
16531;SDS011;66872;63.142;14.482;2023-04-03T08:57:35;1.40;;;1.10;;
16531;SDS011;66872;63.142;14.482;2023-04-03T09:00:30;1.70;;;0.90;;
16531;SDS011;66872;63.142;14.482;2023-04-03T09:03:11;1.00;;;0.90;;
16531;SDS011;66872;63.142;14.482;2023-04-03T09:05:43;1.97;;;1.27;;
16531;SDS011;66872;63.142;14.482;2023-04-03T09:16:10;1.80;;;1.00;;
16531;SDS011;66872;63.142;14.482;2023-04-03T09:18:48;1.20;;;1.10;;
16531;SDS011;66872;63.142;14.482;2023-04-03T09:21:25;1.40;;;1.20;;
16531;SDS011;66872;63.142;14.482;2023-04-03T09:23:59;0.70;;;0.70;;
16531;SDS011;66872;63.142;14.482;2023-04-03T09:26:30;1.67;;;0.90;;
16531;SDS011;66872;63.142;14.482;2023-04-03T09:29:02;1.50;;;1.10;;
16531;SDS011;66872;63.142;14.482;2023-04-03T09:31:39;0.90;;;0.90;;
16531;SDS011;66872;63.142;14.482;2023-04-03T09:34:18;1.33;;;1.10;;
16531;SDS011;66872;63.142;14.482;2023-04-03T09:36:49;1.20;;;1.00;;
16531;SDS011;66872;63.142;14.482;2023-04-03T09:39:24;1.00;;;0.90;;
16531;SDS011;66872;63.142;14.482;2023-04-03T09:44:28;1.37;;;1.07;;
16531;SDS011;66872;63.142;14.482;2023-04-03T09:46:59;1.20;;;1.10;;
16531;SDS011;66872;63.142;14.482;2023-04-03T09:49:42;1.10;;;1.00;;
16531;SDS011;66872;63.142;14.482;2023-04-03T09:52:22;1.40;;;1.10;;
16531;SDS011;66872;63.142;14.482;2023-04-03T09:54:49;1.10;;;1.00;;
16531;SDS011;66872;63.142;14.482;2023-04-03T09:57:15;0.83;;;0.83;;
16531;SDS011;66872;63.142;14.482;2023-04-03T09:59:43;120.80;;;11.60;;
16531;SDS011;66872;63.142;14.482;2023-04-03T10:02:57;216.43;;;20.23;;
16531;SDS011;66872;63.142;14.482;2023-04-03T10:05:03;217.67;;;20.07;;
16531;SDS011;66872;63.142;14.482;2023-04-03T10:07:48;214.67;;;20.60;;
16531;SDS011;66872;63.142;14.482;2023-04-03T10:12:40;162.63;;;16.57;;
16531;SDS011;66872;63.142;14.482;2023-04-03T10:15:16;141.83;;;13.67;;
16531;SDS011;66872;63.142;14.482;2023-04-03T10:17:56;114.80;;;12.90;;
16531;SDS011;66872;63.142;14.482;2023-04-03T10:20:31;75.87;;;10.17;;
16531;SDS011;66872;63.142;14.482;2023-04-03T10:28:48;39.50;;;6.73;;
16531;SDS011;66872;63.142;14.482;2023-04-03T10:31:44;42.17;;;5.73;;
16531;SDS011;66872;63.142;14.482;2023-04-03T10:48:02;10.67;;;3.07;;
16531;SDS011;66872;63.142;14.482;2023-04-03T10:53:24;11.13;;;2.97;;
16531;SDS011;66872;63.142;14.482;2023-04-03T10:58:53;7.07;;;2.60;;
16531;SDS011;66872;63.142;14.482;2023-04-03T11:01:28;6.80;;;2.17;;
16531;SDS011;66872;63.142;14.482;2023-04-03T11:03:59;6.00;;;1.90;;
16531;SDS011;66872;63.142;14.482;2023-04-03T11:06:26;11.33;;;2.00;;
16531;SDS011;66872;63.142;14.482;2023-04-03T11:09:18;7.53;;;2.20;;
16531;SDS011;66872;63.142;14.482;2023-04-03T11:11:45;9.00;;;1.90;;
16531;SDS011;66872;63.142;14.482;2023-04-03T11:14:29;6.93;;;1.97;;
16531;SDS011;66872;63.142;14.482;2023-04-03T11:22:29;9.70;;;2.10;;
16531;SDS011;66872;63.142;14.482;2023-04-03T11:27:40;6.80;;;2.00;;
16531;SDS011;66872;63.142;14.482;2023-04-03T11:30:14;6.43;;;1.80;;
16531;SDS011;66872;63.142;14.482;2023-04-03T11:35:51;8.30;;;2.00;;
16531;SDS011;66872;63.142;14.482;2023-04-03T11:38:25;5.77;;;1.87;;
16531;SDS011;66872;63.142;14.482;2023-04-03T11:40:55;5.47;;;1.70;;
16531;SDS011;66872;63.142;14.482;2023-04-03T11:50:53;4.73;;;2.00;;
16531;SDS011;66872;63.142;14.482;2023-04-03T11:53:27;3.80;;;1.60;;
16531;SDS011;66872;63.142;14.482;2023-04-03T11:58:33;4.70;;;1.70;;
16531;SDS011;66872;63.142;14.482;2023-04-03T12:01:01;5.03;;;1.80;;
16531;SDS011;66872;63.142;14.482;2023-04-03T12:08:28;3.70;;;1.53;;
16531;SDS011;66872;63.142;14.482;2023-04-03T12:13:39;4.10;;;1.83;;
16531;SDS011;66872;63.142;14.482;2023-04-03T12:16:05;4.40;;;1.70;;
16531;SDS011;66872;63.142;14.482;2023-04-03T12:21:17;4.70;;;1.70;;
16531;SDS011;66872;63.142;14.482;2023-04-03T12:24:04;5.00;;;2.00;;
16531;SDS011;66872;63.142;14.482;2023-04-03T12:29:20;3.03;;;1.70;;
16531;SDS011;66872;63.142;14.482;2023-04-03T12:31:58;4.10;;;1.73;;
16531;SDS011;66872;63.142;14.482;2023-04-03T12:34:43;3.27;;;1.67;;
16531;SDS011;66872;63.142;14.482;2023-04-03T12:37:29;3.30;;;1.60;;
16531;SDS011;66872;63.142;14.482;2023-04-03T12:45:30;3.27;;;1.70;;
16531;SDS011;66872;63.142;14.482;2023-04-03T12:48:03;3.53;;;1.57;;
16531;SDS011;66872;63.142;14.482;2023-04-03T12:50:39;4.43;;;1.80;;
16531;SDS011;66872;63.142;14.482;2023-04-03T12:53:10;3.00;;;1.67;;
16531;SDS011;66872;63.142;14.482;2023-04-03T12:58:45;3.73;;;1.60;;
16531;SDS011;66872;63.142;14.482;2023-04-03T13:01:12;2.27;;;1.40;;
16531;SDS011;66872;63.142;14.482;2023-04-03T13:03:43;2.00;;;1.30;;
16531;SDS011;66872;63.142;14.482;2023-04-03T13:06:12;3.47;;;1.47;;
16531;SDS011;66872;63.142;14.482;2023-04-03T13:08:52;3.83;;;1.60;;
16531;SDS011;66872;63.142;14.482;2023-04-03T13:11:19;3.80;;;1.90;;
16531;SDS011;66872;63.142;14.482;2023-04-03T13:13:59;2.40;;;1.60;;
16531;SDS011;66872;63.142;14.482;2023-04-03T13:16:27;2.73;;;1.40;;
16531;SDS011;66872;63.142;14.482;2023-04-03T13:18:53;2.60;;;1.53;;
16531;SDS011;66872;63.142;14.482;2023-04-03T13:21:21;3.30;;;1.70;;
16531;SDS011;66872;63.142;14.482;2023-04-03T13:23:53;1.97;;;1.37;;
16531;SDS011;66872;63.142;14.482;2023-04-03T13:26:22;3.30;;;1.40;;
16531;SDS011;66872;63.142;14.482;2023-04-03T13:28:51;2.83;;;1.57;;
16531;SDS011;66872;63.142;14.482;2023-04-03T13:31:19;3.33;;;1.60;;
16531;SDS011;66872;63.142;14.482;2023-04-03T13:36:26;2.43;;;1.30;;
16531;SDS011;66872;63.142;14.482;2023-04-03T13:39:06;3.27;;;1.50;;
16531;SDS011;66872;63.142;14.482;2023-04-03T13:41:53;2.60;;;1.80;;
16531;SDS011;66872;63.142;14.482;2023-04-03T13:46:53;2.87;;;1.40;;
16531;SDS011;66872;63.142;14.482;2023-04-03T13:49:30;2.93;;;1.37;;
16531;SDS011;66872;63.142;14.482;2023-04-03T13:52:38;2.73;;;1.50;;
16531;SDS011;66872;63.142;14.482;2023-04-03T13:57:52;3.97;;;1.67;;
16531;SDS011;66872;63.142;14.482;2023-04-03T14:05:58;2.50;;;1.50;;
16531;SDS011;66872;63.142;14.482;2023-04-03T14:08:25;3.13;;;1.60;;
16531;SDS011;66872;63.142;14.482;2023-04-03T14:10:50;2.77;;;1.30;;
16531;SDS011;66872;63.142;14.482;2023-04-03T14:13:17;1.87;;;1.60;;
16531;SDS011;66872;63.142;14.482;2023-04-03T14:15:44;3.77;;;1.70;;
16531;SDS011;66872;63.142;14.482;2023-04-03T14:18:13;2.43;;;1.43;;
16531;SDS011;66872;63.142;14.482;2023-04-03T14:20:41;2.33;;;1.53;;
16531;SDS011;66872;63.142;14.482;2023-04-03T14:23:08;4.17;;;1.60;;
16531;SDS011;66872;63.142;14.482;2023-04-03T14:25:34;2.07;;;1.40;;
16531;SDS011;66872;63.142;14.482;2023-04-03T14:28:00;2.77;;;1.40;;
16531;SDS011;66872;63.142;14.482;2023-04-03T14:30:30;2.00;;;1.43;;
16531;SDS011;66872;63.142;14.482;2023-04-03T14:32:58;2.83;;;1.47;;
16531;SDS011;66872;63.142;14.482;2023-04-03T14:35:26;2.27;;;1.57;;
16531;SDS011;66872;63.142;14.482;2023-04-03T14:37:52;2.57;;;1.43;;
16531;SDS011;66872;63.142;14.482;2023-04-03T14:40:21;4.17;;;1.77;;
16531;SDS011;66872;63.142;14.482;2023-04-03T14:42:48;2.53;;;1.40;;
16531;SDS011;66872;63.142;14.482;2023-04-03T14:45:16;2.03;;;1.47;;
16531;SDS011;66872;63.142;14.482;2023-04-03T14:47:50;1.83;;;1.30;;
16531;SDS011;66872;63.142;14.482;2023-04-03T14:50:19;2.53;;;1.37;;
16531;SDS011;66872;63.142;14.482;2023-04-03T14:52:47;2.00;;;1.37;;
16531;SDS011;66872;63.142;14.482;2023-04-03T14:55:16;1.97;;;1.20;;
16531;SDS011;66872;63.142;14.482;2023-04-03T14:57:43;3.87;;;1.57;;
16531;SDS011;66872;63.142;14.482;2023-04-03T15:00:16;1.80;;;1.30;;
16531;SDS011;66872;63.142;14.482;2023-04-03T15:02:44;2.00;;;1.50;;
16531;SDS011;66872;63.142;14.482;2023-04-03T15:05:10;1.47;;;1.30;;
16531;SDS011;66872;63.142;14.482;2023-04-03T15:07:37;1.90;;;1.37;;
16531;SDS011;66872;63.142;14.482;2023-04-03T15:12:43;3.67;;;1.57;;
16531;SDS011;66872;63.142;14.482;2023-04-03T15:15:09;1.93;;;1.10;;
16531;SDS011;66872;63.142;14.482;2023-04-03T15:17:35;1.57;;;1.20;;
16531;SDS011;66872;63.142;14.482;2023-04-03T15:20:02;3.43;;;1.33;;
16531;SDS011;66872;63.142;14.482;2023-04-03T15:22:28;2.73;;;1.30;;
16531;SDS011;66872;63.142;14.482;2023-04-03T15:24:54;1.80;;;1.30;;
16531;SDS011;66872;63.142;14.482;2023-04-03T15:27:20;2.20;;;1.50;;
16531;SDS011;66872;63.142;14.482;2023-04-03T15:29:45;1.60;;;1.30;;
16531;SDS011;66872;63.142;14.482;2023-04-03T15:32:11;2.17;;;1.50;;
16531;SDS011;66872;63.142;14.482;2023-04-03T15:34:38;1.70;;;1.20;;
16531;SDS011;66872;63.142;14.482;2023-04-03T15:37:04;1.80;;;1.30;;
16531;SDS011;66872;63.142;14.482;2023-04-03T15:39:30;2.00;;;1.27;;
16531;SDS011;66872;63.142;14.482;2023-04-03T15:41:56;2.87;;;1.20;;
16531;SDS011;66872;63.142;14.482;2023-04-03T15:44:24;2.47;;;1.47;;
16531;SDS011;66872;63.142;14.482;2023-04-03T15:46:50;1.80;;;1.30;;
16531;SDS011;66872;63.142;14.482;2023-04-03T15:49:16;3.77;;;1.60;;
16531;SDS011;66872;63.142;14.482;2023-04-03T15:51:43;2.60;;;1.50;;
16531;SDS011;66872;63.142;14.482;2023-04-03T15:54:09;1.77;;;1.30;;
16531;SDS011;66872;63.142;14.482;2023-04-03T15:56:35;2.00;;;1.20;;
16531;SDS011;66872;63.142;14.482;2023-04-03T15:59:01;2.10;;;1.40;;
16531;SDS011;66872;63.142;14.482;2023-04-03T16:01:27;2.10;;;1.30;;
16531;SDS011;66872;63.142;14.482;2023-04-03T16:03:53;2.57;;;1.40;;
16531;SDS011;66872;63.142;14.482;2023-04-03T16:06:19;2.47;;;1.30;;
16531;SDS011;66872;63.142;14.482;2023-04-03T16:08:46;1.80;;;1.40;;
16531;SDS011;66872;63.142;14.482;2023-04-03T16:11:12;1.73;;;1.40;;
16531;SDS011;66872;63.142;14.482;2023-04-03T16:13:38;1.27;;;1.17;;
16531;SDS011;66872;63.142;14.482;2023-04-03T16:16:04;2.40;;;1.13;;
16531;SDS011;66872;63.142;14.482;2023-04-03T16:18:33;1.20;;;0.97;;
16531;SDS011;66872;63.142;14.482;2023-04-03T16:21:00;2.17;;;1.37;;
16531;SDS011;66872;63.142;14.482;2023-04-03T16:23:26;3.40;;;1.03;;
16531;SDS011;66872;63.142;14.482;2023-04-03T16:25:51;1.83;;;1.23;;
16531;SDS011;66872;63.142;14.482;2023-04-03T16:28:17;1.70;;;1.20;;
16531;SDS011;66872;63.142;14.482;2023-04-03T16:30:44;3.67;;;1.40;;
16531;SDS011;66872;63.142;14.482;2023-04-03T16:33:10;2.43;;;1.40;;
16531;SDS011;66872;63.142;14.482;2023-04-03T16:35:37;2.03;;;1.30;;
16531;SDS011;66872;63.142;14.482;2023-04-03T16:38:03;1.10;;;0.90;;
16531;SDS011;66872;63.142;14.482;2023-04-03T16:40:29;1.90;;;1.10;;